MTS Valour — MPVV8 — position and weather

sailwx.info

Track history (hours):
 
Tides and Currents Weather Stations Pressure Air Temp Water Temp Dewpoint Dewpoint Depression Visibility Wind Speed Wind Dir Waves Ship Positions

MTS Valour

Last reported at 2018-Apr-25 00:37 UTC. Time now 2018-Apr-26 07:55 UTC.
Position N 51°09' W 004°30'.

Length 24 m; draft 2.3 m.

Type: Tug. MMSI: 235040596.

Date/timePositionNaut miles runAvg speedWind from/ knotsBaromVisibWave heightAir tempDewpointWater temp
2018-Apr-25 00:37N 51°09' W 004°30'1 6.3
2018-Apr-25 00:30N 51°08' W 004°31'5 6.7
2018-Apr-24 23:47N 51°05' W 004°37'3 6.4
2018-Apr-24 23:15N 51°03' W 004°41'2 6.2
2018-Apr-24 22:59N 51°02' W 004°43'3 6.0
2018-Apr-24 22:30N 50°60' W 004°46'3 5.6
2018-Apr-24 21:59N 50°58' W 004°50'2 5.0
2018-Apr-24 21:30N 50°56' W 004°53'2 4.9
2018-Apr-24 21:00N 50°55' W 004°55'2 4.9
2018-Apr-24 20:30N 50°53' W 004°58'2 4.6
2018-Apr-24 20:00N 50°51' W 005°01'2 4.4
2018-Apr-24 19:30N 50°50' W 005°04'2 4.3
2018-Apr-24 19:00N 50°48' W 005°06'2 4.2
2018-Apr-24 18:30N 50°47' W 005°09'2 4.0
2018-Apr-24 18:00N 50°46' W 005°11'2 3.7
2018-Apr-24 17:31N 50°44' W 005°13'2 4.1
2018-Apr-24 16:56N 50°43' W 005°16'3 4.0
2018-Apr-24 16:11N 50°41' W 005°19'1 3.9
2018-Apr-24 15:56N 50°40' W 005°20'2 4.0
2018-Apr-24 15:24N 50°38' W 005°22'2 4.1
2018-Apr-24 14:55N 50°37' W 005°25'72 2.5
2018-Apr-23 09:58N 50°07' W 003°41'4 5.1
2018-Apr-23 09:05N 50°08' W 003°35'0 5.5
2018-Apr-23 09:00N 50°08' W 003°34'3 5.5
2018-Apr-23 08:30N 50°08' W 003°30'3 5.8
2018-Apr-23 08:00N 50°09' W 003°25'3 6.1
2018-Apr-23 07:30N 50°09' W 003°21'3 6.1
2018-Apr-23 07:00N 50°10' W 003°16'3 6.2
2018-Apr-23 06:30N 50°11' W 003°11'3 6.2
2018-Apr-23 06:00N 50°11' W 003°06'3 6.0
2018-Apr-23 05:30N 50°12' W 003°02'5 5.4
2018-Apr-23 04:34N 50°13' W 002°54'49 4.5
2018-Apr-22 17:31N 50°21' W 001°38'0 6.4
2018-Apr-22 17:29N 50°21' W 001°38'3 6.2
2018-Apr-22 17:00N 50°22' W 001°33'3 5.6
2018-Apr-22 16:30N 50°22' W 001°29'3 5.6
2018-Apr-22 16:00N 50°23' W 001°25'2 5.0
2018-Apr-22 15:30N 50°23' W 001°21'2 4.5
2018-Apr-22 15:00N 50°24' W 001°17'2 4.1
2018-Apr-22 14:30N 50°24' W 001°14'2 3.5
2018-Apr-22 14:00N 50°24' W 001°11'2 3.1
2018-Apr-22 13:29N 50°25' W 001°09'2 2.7
2018-Apr-22 12:39N 50°25' W 001°05'12 3.7
2018-Apr-22 09:27N 50°27' W 000°47'3 6.5
2018-Apr-22 09:00N 50°28' W 000°43'3 6.7
2018-Apr-22 08:30N 50°28' W 000°37'3 6.9
2018-Apr-22 08:00N 50°29' W 000°32'3 6.9
2018-Apr-22 07:30N 50°29' W 000°27'4 7.0
2018-Apr-22 06:52N 50°30' W 000°20'3 6.9
2018-Apr-22 06:30N 50°31' W 000°16'4 6.8
2018-Apr-22 05:59N 50°31' W 000°11'3 6.6
2018-Apr-22 05:30N 50°32' W 000°06'3 6.5
2018-Apr-22 05:00N 50°33' W 000°01'3 6.3
2018-Apr-22 04:30N 50°34' E 000°04'3 6.0
2018-Apr-22 04:00N 50°34' E 000°09'3 5.7
2018-Apr-22 03:30N 50°35' E 000°13'3 5.2
2018-Apr-22 03:00N 50°36' E 000°17'2 4.7
2018-Apr-22 02:30N 50°36' E 000°20'2 4.3
2018-Apr-22 02:00N 50°37' E 000°24'2 3.9
2018-Apr-22 01:30N 50°37' E 000°27'2 3.8
2018-Apr-22 01:00N 50°38' E 000°30'2 3.9
2018-Apr-22 00:30N 50°39' E 000°33'2 4.2
2018-Apr-22 00:00N 50°40' E 000°35'2 4.7
2018-Apr-21 23:30N 50°41' E 000°38'3 5.2
2018-Apr-21 23:00N 50°42' E 000°42'3 6.0
2018-Apr-21 22:30N 50°44' E 000°46'3 6.6
2018-Apr-21 22:00N 50°46' E 000°50'3 6.9
2018-Apr-21 21:30N 50°48' E 000°55'4 7.0
2018-Apr-21 21:00N 50°50' E 000°59'3 6.8
2018-Apr-21 20:30N 50°52' E 001°03'18 5.3
2018-Apr-21 17:11N 51°03' E 001°25'1 3.6
2018-Apr-21 16:52N 51°04' E 001°26'1 3.4
2018-Apr-21 16:30N 51°05' E 001°28'2 3.4
2018-Apr-21 15:59N 51°06' E 001°30'2 3.8
2018-Apr-21 15:22N 51°07' E 001°33'2 4.2
2018-Apr-21 14:56N 51°09' E 001°35'2 4.6
2018-Apr-21 14:30N 51°10' E 001°38'3 5.1
2018-Apr-21 14:00N 51°12' E 001°41'3 5.7
2018-Apr-21 13:30N 51°13' E 001°44'4 7.1
2018-Apr-21 13:00N 51°17' E 001°46'4 8.0
2018-Apr-21 12:30N 51°20' E 001°49'4 8.4
2018-Apr-21 12:00N 51°24' E 001°51'4 7.5
2018-Apr-21 11:30N 51°28' E 001°51'3 7.0
2018-Apr-21 11:00N 51°31' E 001°49'4 7.1
2018-Apr-21 10:30N 51°35' E 001°47'3 6.4
2018-Apr-21 10:00N 51°37' E 001°45'3 6.3
2018-Apr-21 09:30N 51°41' E 001°44'3 6.0
2018-Apr-21 09:00N 51°44' E 001°43'3 5.7
2018-Apr-21 08:30N 51°46' E 001°43'3 5.5
2018-Apr-21 08:00N 51°49' E 001°42'3 6.6
2018-Apr-21 07:30N 51°50' E 001°37'3 6.4
2018-Apr-21 07:00N 51°50' E 001°31'3 6.5
2018-Apr-21 06:30N 51°50' E 001°26'4 7.3
2018-Apr-21 06:00N 51°48' E 001°21'4 7.9
2018-Apr-21 05:30N 51°46' E 001°16'4 7.3
2018-Apr-21 05:00N 51°45' E 001°11'3 6.5
2018-Apr-21 04:30N 51°44' E 001°05'2 4.8
2018-Apr-21 04:00N 51°45' E 001°02'2 4.9
2018-Apr-21 03:30N 51°48' E 001°01'1 1.7
2018-Apr-21 03:00N 51°48' E 001°02'0 0.0
2018-Apr-21 02:30N 51°48' E 001°02'0 0.3
2018-Apr-21 01:58N 51°48' E 001°01'0 0.0
2018-Apr-21 01:28N 51°48' E 001°01'0 0.0
2018-Apr-21 00:58N 51°48' E 001°01'0 0.0
2018-Apr-21 00:28N 51°48' E 001°01'0 0.0
2018-Apr-20 23:58N 51°48' E 001°01'0 0.0
2018-Apr-20 23:28N 51°48' E 001°01'0 0.0
2018-Apr-20 22:58N 51°48' E 001°01'0 0.0
2018-Apr-20 22:28N 51°48' E 001°01'0 0.0
2018-Apr-20 21:58N 51°48' E 001°01'0 0.0
2018-Apr-20 21:28N 51°48' E 001°01'0 0.0
2018-Apr-20 20:58N 51°48' E 001°01'0 0.0
2018-Apr-20 20:28N 51°48' E 001°01'0 0.0
2018-Apr-20 19:58N 51°48' E 001°01'0 0.0
2018-Apr-20 19:28N 51°48' E 001°01'0 0.0
2018-Apr-20 18:58N 51°48' E 001°01'0 0.0
2018-Apr-20 18:28N 51°48' E 001°01'0 0.0
2018-Apr-20 17:58N 51°48' E 001°01'0 0.0
2018-Apr-20 17:28N 51°48' E 001°01'0 0.0
2018-Apr-20 16:58N 51°48' E 001°01'0 0.0
2018-Apr-20 16:28N 51°48' E 001°01'0 0.0
2018-Apr-20 15:58N 51°48' E 001°01'0 0.0
2018-Apr-20 15:28N 51°48' E 001°01'0 0.3
2018-Apr-20 15:00N 51°48' E 001°02'0 0.2
2018-Apr-20 14:30N 51°48' E 001°01'0 0.0
2018-Apr-20 14:00N 51°48' E 001°01'0 0.0
2018-Apr-20 13:30N 51°48' E 001°01'0 0.0
2018-Apr-20 13:00N 51°48' E 001°01'0 0.0
2018-Apr-20 12:30N 51°48' E 001°01'0 0.0
2018-Apr-20 12:00N 51°48' E 001°01'0 0.0
2018-Apr-20 11:30N 51°48' E 001°01'0 0.0
2018-Apr-20 11:00N 51°48' E 001°01'0 0.0
2018-Apr-20 10:30N 51°48' E 001°01'0 0.0
2018-Apr-20 10:00N 51°48' E 001°01'0 0.0
2018-Apr-20 09:30N 51°48' E 001°01'0 0.0
2018-Apr-20 09:00N 51°48' E 001°01'0 0.0
2018-Apr-20 08:30N 51°48' E 001°01'0 0.0
2018-Apr-20 08:00N 51°48' E 001°01'0 0.0
2018-Apr-20 07:30N 51°48' E 001°01'0 0.0
2018-Apr-20 07:00N 51°48' E 001°01'0 0.0
2018-Apr-20 06:30N 51°48' E 001°01'0 0.0
2018-Apr-20 06:00N 51°48' E 001°01'0 0.0
2018-Apr-20 05:24N 51°48' E 001°01'0 0.0
2018-Apr-20 04:54N 51°48' E 001°01'0 0.0
2018-Apr-20 04:24N 51°48' E 001°01'0 0.0
2018-Apr-20 03:54N 51°48' E 001°01'0 0.0
2018-Apr-20 03:30N 51°48' E 001°01'0 0.0
2018-Apr-20 02:57N 51°48' E 001°01'0 0.0
2018-Apr-20 02:27N 51°48' E 001°01'0 0.0
2018-Apr-20 01:57N 51°48' E 001°01'0 0.0
2018-Apr-20 01:27N 51°48' E 001°01'0 0.0
2018-Apr-20 00:57N 51°48' E 001°01'0 0.0
2018-Apr-20 00:27N 51°48' E 001°01'0 0.0
2018-Apr-20 00:00N 51°48' E 001°01'0 0.0
2018-Apr-19 23:30N 51°48' E 001°01'0 0.0
2018-Apr-19 23:00N 51°48' E 001°01'0 0.0
2018-Apr-19 22:30N 51°48' E 001°01'0 0.0
2018-Apr-19 22:00N 51°48' E 001°01'0 0.0
2018-Apr-19 21:30N 51°48' E 001°01'0 0.0
2018-Apr-19 21:00N 51°48' E 001°01'0 0.0
2018-Apr-19 20:30N 51°48' E 001°01'0 0.0
2018-Apr-19 20:00N 51°48' E 001°01'0 0.0
2018-Apr-19 19:30N 51°48' E 001°01'0 0.0
2018-Apr-19 19:00N 51°48' E 001°01'0 0.0
2018-Apr-19 18:30N 51°48' E 001°01'0 0.0
2018-Apr-19 18:00N 51°48' E 001°01'0 0.0
2018-Apr-19 17:30N 51°48' E 001°01'0 0.0
2018-Apr-19 17:00N 51°48' E 001°01'0 0.0
2018-Apr-19 16:30N 51°48' E 001°01'0 0.0
2018-Apr-19 16:00N 51°48' E 001°01'0 0.0
2018-Apr-19 15:27N 51°48' E 001°01'0 0.0
2018-Apr-19 15:00N 51°48' E 001°01'0 0.5
2018-Apr-19 14:30N 51°48' E 001°02'0 1.0
2018-Apr-19 14:00N 51°48' E 001°01'0 0.8
2018-Apr-19 13:30N 51°48' E 001°00'0 0.1
2018-Apr-19 13:00N 51°48' E 001°00'0 0.0
2018-Apr-19 12:30N 51°48' E 001°00'1 2.3
2018-Apr-19 12:00N 51°47' E 001°01'2 3.1
2018-Apr-19 11:30N 51°46' E 001°02'1 2.4
2018-Apr-19 11:00N 51°45' E 001°02'0 0.3
2018-Apr-19 10:30N 51°45' E 001°02'2 3.9
2018-Apr-19 10:00N 51°44' E 001°05'2 4.9
2018-Apr-19 09:31N 51°44' E 001°09'2 4.8
2018-Apr-19 09:01N 51°45' E 001°12'2 4.3
2018-Apr-19 08:30N 51°46' E 001°15'2 4.0
2018-Apr-19 08:00N 51°47' E 001°18'2 3.5
2018-Apr-19 07:30N 51°48' E 001°20'2 3.4
2018-Apr-19 07:00N 51°49' E 001°23'2 3.1
2018-Apr-19 06:30N 51°50' E 001°25'1 2.9
2018-Apr-19 06:01N 51°50' E 001°27'2 3.0
2018-Apr-19 05:30N 51°50' E 001°30'1 2.6
2018-Apr-19 05:00N 51°50' E 001°32'2 3.5
2018-Apr-19 04:30N 51°49' E 001°34'1 2.9
2018-Apr-19 04:00N 51°49' E 001°36'1 2.5
2018-Apr-19 03:31N 51°49' E 001°38'2 3.0
2018-Apr-19 03:00N 51°49' E 001°40'3 5.1
2018-Apr-19 02:30N 51°46' E 001°41'3 5.3
2018-Apr-19 02:00N 51°43' E 001°42'2 5.0
2018-Apr-19 01:30N 51°41' E 001°42'2 4.7
2018-Apr-19 01:01N 51°39' E 001°43'2 4.2
2018-Apr-19 00:30N 51°36' E 001°43'2 3.8
2018-Apr-19 00:00N 51°35' E 001°43'2 3.1
2018-Apr-18 23:30N 51°33' E 001°44'1 2.9
2018-Apr-18 23:00N 51°32' E 001°44'1 2.5
2018-Apr-18 22:30N 51°30' E 001°44'1 2.1
2018-Apr-18 22:00N 51°29' E 001°44'1 1.9
2018-Apr-18 21:30N 51°28' E 001°44'1 2.0
2018-Apr-18 21:00N 51°27' E 001°44'1 2.2
2018-Apr-18 20:30N 51°26' E 001°44'1 2.5
2018-Apr-18 20:00N 51°25' E 001°43'1 2.6
2018-Apr-18 19:31N 51°24' E 001°43'1 2.9
2018-Apr-18 19:01N 51°23' E 001°41'2 3.5
2018-Apr-18 18:31N 51°22' E 001°38'2 3.7
2018-Apr-18 18:01N 51°22' E 001°35'2 4.0
2018-Apr-18 17:30N 51°21' E 001°32'2 4.3
2018-Apr-18 17:00N 51°20' E 001°29'3 5.0
2018-Apr-18 16:31N 51°20' E 001°25'0 0.6
2018-Apr-18 16:00N 51°20' E 001°25'0 0.0
2018-Apr-18 15:30N 51°20' E 001°25'0 0.0
2018-Apr-18 15:00N 51°20' E 001°25'0 0.0
2018-Apr-18 14:30N 51°20' E 001°25'0 0.0
2018-Apr-18 14:00N 51°20' E 001°25'0 0.0
2018-Apr-18 13:29N 51°20' E 001°25'0 0.0
2018-Apr-18 12:59N 51°20' E 001°25'0 0.0
2018-Apr-18 12:30N 51°20' E 001°25'0 0.0
2018-Apr-18 11:59N 51°20' E 001°25'0 0.0
2018-Apr-18 11:29N 51°20' E 001°25'0 0.1
2018-Apr-18 10:59N 51°20' E 001°25'0 0.1
2018-Apr-18 10:30N 51°20' E 001°25'0 0.7
2018-Apr-18 09:59N 51°20' E 001°25'0 0.0
2018-Apr-18 09:29N 51°20' E 001°25'0 0.0
2018-Apr-18 08:59N 51°20' E 001°25'0 0.0
2018-Apr-18 08:29N 51°20' E 001°25'0 0.0
2018-Apr-18 07:59N 51°20' E 001°25'0 0.0
2018-Apr-18 07:29N 51°20' E 001°25'0 0.0
2018-Apr-18 06:59N 51°20' E 001°25'0 0.0
2018-Apr-18 06:29N 51°20' E 001°25'0 0.0
2018-Apr-18 05:59N 51°20' E 001°25'0 0.0
2018-Apr-18 05:29N 51°20' E 001°25'0 0.0
2018-Apr-18 04:59N 51°20' E 001°25'0 0.0
2018-Apr-18 04:29N 51°20' E 001°25'0 0.0
2018-Apr-18 03:59N 51°20' E 001°25'0 0.0
2018-Apr-18 03:29N 51°20' E 001°25'0 0.0
2018-Apr-18 02:59N 51°20' E 001°25'0 0.0
2018-Apr-18 02:29N 51°20' E 001°25'0 0.0
2018-Apr-18 01:59N 51°20' E 001°25'0 0.0
2018-Apr-18 01:29N 51°20' E 001°25'0 0.0
2018-Apr-18 00:59N 51°20' E 001°25'0 0.0
2018-Apr-18 00:29N 51°20' E 001°25'0 0.0
2018-Apr-17 23:59N 51°20' E 001°25'0 0.0
2018-Apr-17 23:29N 51°20' E 001°25'0 0.0
2018-Apr-17 22:59N 51°20' E 001°25'0 0.0
2018-Apr-17 22:29N 51°20' E 001°25'0 0.0
2018-Apr-17 21:59N 51°20' E 001°25'0 0.0
2018-Apr-17 21:29N 51°20' E 001°25'0 0.0
2018-Apr-17 20:59N 51°20' E 001°25'0 0.0
2018-Apr-17 20:29N 51°20' E 001°25'0 0.0
2018-Apr-17 19:59N 51°20' E 001°25'0 0.0
2018-Apr-17 19:29N 51°20' E 001°25'0 0.0
2018-Apr-17 18:59N 51°20' E 001°25'0 0.0
2018-Apr-17 18:29N 51°20' E 001°25'0 0.0
2018-Apr-17 17:59N 51°20' E 001°25'0 0.0
2018-Apr-17 17:29N 51°20' E 001°25'0 0.0
2018-Apr-17 17:00N 51°20' E 001°25'0 0.7
2018-Apr-17 16:30N 51°20' E 001°25'0 0.4
2018-Apr-17 16:00N 51°20' E 001°25'2 3.7
2018-Apr-17 15:31N 51°20' E 001°28'2 3.4
2018-Apr-17 15:00N 51°21' E 001°31'2 3.7
2018-Apr-17 14:31N 51°21' E 001°33'2 3.5
2018-Apr-17 14:00N 51°22' E 001°36'1 1.3
2018-Apr-17 13:30N 51°23' E 001°36'2 3.4
2018-Apr-17 13:00N 51°23' E 001°39'2 4.1
2018-Apr-17 12:31N 51°24' E 001°42'2 4.4
2018-Apr-17 12:00N 51°25' E 001°45'2 4.9
2018-Apr-17 11:30N 51°26' E 001°49'3 5.6
2018-Apr-17 11:00N 51°28' E 001°52'3 6.5
2018-Apr-17 10:30N 51°30' E 001°57'4 7.3
2018-Apr-17 10:00N 51°32' E 002°01'4 7.9
2018-Apr-17 09:29N 51°35' E 002°06'4 8.0
2018-Apr-17 09:00N 51°38' E 002°10'4 7.6
2018-Apr-17 08:29N 51°41' E 002°14'4 7.4
2018-Apr-17 08:00N 51°43' E 002°18'3 6.9
2018-Apr-17 07:30N 51°46' E 002°22'3 6.3
2018-Apr-17 07:00N 51°48' E 002°26'48 4.5
2018-Apr-16 20:29N 52°03' E 003°39'3 6.2
2018-Apr-16 20:00N 52°03' E 003°44'3 6.0
2018-Apr-16 19:30N 52°03' E 003°49'3 5.7
2018-Apr-16 19:01N 52°03' E 003°54'3 5.2
2018-Apr-16 18:31N 52°02' E 003°58'3 5.7
2018-Apr-16 18:00N 52°00' E 004°02'3 6.2
2018-Apr-16 17:30N 51°59' E 004°06'3 6.4
2018-Apr-16 17:01N 51°57' E 004°10'3 6.0
2018-Apr-16 16:31N 51°55' E 004°14'3 5.5
2018-Apr-16 16:00N 51°54' E 004°18'3 5.3
2018-Apr-16 15:30N 51°54' E 004°22'0 0.6
2018-Apr-16 15:00N 51°54' E 004°23'0 0.0
2018-Apr-16 14:31N 51°54' E 004°23'0 0.0
2018-Apr-16 14:00N 51°54' E 004°23'0 0.0
2018-Apr-16 13:30N 51°54' E 004°23'0 0.0
2018-Apr-16 13:01N 51°54' E 004°23'0 0.6
2018-Apr-16 12:30N 51°54' E 004°23'2 3.2
2018-Apr-16 11:55N 51°54' E 004°26'0 0.0
2018-Apr-16 11:28N 51°54' E 004°26'0 0.0
2018-Apr-16 10:58N 51°54' E 004°26'0 0.0
2018-Apr-16 10:28N 51°54' E 004°26'0 0.0
2018-Apr-16 09:55N 51°54' E 004°26'0 0.0
2018-Apr-16 09:28N 51°54' E 004°26'0 0.0
2018-Apr-16 08:58N 51°54' E 004°26'0 0.0
2018-Apr-16 08:28N 51°54' E 004°26'0 0.0
2018-Apr-16 07:58N 51°54' E 004°26'0 0.1
2018-Apr-16 07:28N 51°54' E 004°26'0 0.0
2018-Apr-16 06:58N 51°54' E 004°26'0 0.0
2018-Apr-16 06:28N 51°54' E 004°26'0 0.0
2018-Apr-16 05:58N 51°54' E 004°26'0 0.0
2018-Apr-16 05:28N 51°54' E 004°26'0 0.0
2018-Apr-16 04:58N 51°54' E 004°26'0 0.0
2018-Apr-16 04:28N 51°54' E 004°26'0 0.0
2018-Apr-16 03:58N 51°54' E 004°26'0 0.0
2018-Apr-16 03:28N 51°54' E 004°26'0 0.0
2018-Apr-16 02:58N 51°54' E 004°26'0 0.0
2018-Apr-16 02:28N 51°54' E 004°26'0 0.0
2018-Apr-16 01:58N 51°54' E 004°26'0 0.0
2018-Apr-16 01:28N 51°54' E 004°26'0 0.0
2018-Apr-16 00:58N 51°54' E 004°26'0 0.0
2018-Apr-16 00:28N 51°54' E 004°26'0 0.0
2018-Apr-15 23:58N 51°54' E 004°26'0 0.0
2018-Apr-15 23:28N 51°54' E 004°26'0 0.0
2018-Apr-15 22:58N 51°54' E 004°26'0 0.0
2018-Apr-15 22:28N 51°54' E 004°26'0 0.0
2018-Apr-15 21:58N 51°54' E 004°26'0 0.0
2018-Apr-15 21:28N 51°54' E 004°26'0 0.0
2018-Apr-15 20:58N 51°54' E 004°26'0 0.0
2018-Apr-15 20:28N 51°54' E 004°26'0 0.0
2018-Apr-15 19:58N 51°54' E 004°26'0 0.0
2018-Apr-15 19:28N 51°54' E 004°26'0 0.0
2018-Apr-15 18:58N 51°54' E 004°26'0 0.0
2018-Apr-15 18:28N 51°54' E 004°26'0 0.0
2018-Apr-15 17:58N 51°54' E 004°26'0 0.0
2018-Apr-15 17:28N 51°54' E 004°26'0 0.0
2018-Apr-15 16:58N 51°54' E 004°26'0 0.0
2018-Apr-15 16:28N 51°54' E 004°26'0 0.0
2018-Apr-15 15:58N 51°54' E 004°26'0 0.0
2018-Apr-15 15:28N 51°54' E 004°26'0 0.0
2018-Apr-15 14:58N 51°54' E 004°26'0 0.0
2018-Apr-15 14:28N 51°54' E 004°26'0 0.0
2018-Apr-15 13:58N 51°54' E 004°26'0 0.0
2018-Apr-15 13:28N 51°54' E 004°26'0 0.0
2018-Apr-15 12:58N 51°54' E 004°26'0 0.0
2018-Apr-15 12:28N 51°54' E 004°26'0 0.0
2018-Apr-15 11:58N 51°54' E 004°26'0 0.0
2018-Apr-15 11:28N 51°54' E 004°26'0 0.0
2018-Apr-15 10:58N 51°54' E 004°26'0 0.0
2018-Apr-15 10:28N 51°54' E 004°26'0 0.0
2018-Apr-15 09:58N 51°54' E 004°26'0 0.0
2018-Apr-15 09:28N 51°54' E 004°26'0 0.0
2018-Apr-15 08:58N 51°54' E 004°26'0 0.0
2018-Apr-15 08:28N 51°54' E 004°26'0 0.0
2018-Apr-15 07:58N 51°54' E 004°26'0 0.0
2018-Apr-15 07:28N 51°54' E 004°26'0 0.0
2018-Apr-15 06:58N 51°54' E 004°26'0 0.0
2018-Apr-15 06:28N 51°54' E 004°26'0 0.0
2018-Apr-15 05:58N 51°54' E 004°26'0 0.0
2018-Apr-15 05:28N 51°54' E 004°26'0 0.0
2018-Apr-15 04:58N 51°54' E 004°26'0 0.0
2018-Apr-15 04:28N 51°54' E 004°26'0 0.0
2018-Apr-15 03:58N 51°54' E 004°26'0 0.0
2018-Apr-15 03:28N 51°54' E 004°26'0 0.0
2018-Apr-15 02:58N 51°54' E 004°26'0 0.0
2018-Apr-15 02:28N 51°54' E 004°26'0 0.0
2018-Apr-15 01:58N 51°54' E 004°26'0 0.0
2018-Apr-15 01:28N 51°54' E 004°26'0 0.0
2018-Apr-15 00:58N 51°54' E 004°26'  
Track history (hours):
 
Tides and Currents Weather Stations Pressure Air Temp Water Temp Dewpoint Dewpoint Depression Visibility Wind Speed Wind Dir Waves Ship Positions

MTS Valour

Last reported at 2018-Apr-25 00:37 UTC. Time now 2018-Apr-26 07:55 UTC.
Position N 51°09' W 004°30'.

Length 24 m; draft 2.3 m.

Type: Tug. MMSI: 235040596.

Date/timePositionNaut miles runAvg speedWind from/ knotsBaromVisibWave heightAir tempDewpointWater temp
2018-Apr-25 00:37N 51°09' W 004°30'1 6.3
2018-Apr-25 00:30N 51°08' W 004°31'5 6.7
2018-Apr-24 23:47N 51°05' W 004°37'3 6.4
2018-Apr-24 23:15N 51°03' W 004°41'2 6.2
2018-Apr-24 22:59N 51°02' W 004°43'3 6.0
2018-Apr-24 22:30N 50°60' W 004°46'3 5.6
2018-Apr-24 21:59N 50°58' W 004°50'2 5.0
2018-Apr-24 21:30N 50°56' W 004°53'2 4.9
2018-Apr-24 21:00N 50°55' W 004°55'2 4.9
2018-Apr-24 20:30N 50°53' W 004°58'2 4.6
2018-Apr-24 20:00N 50°51' W 005°01'2 4.4
2018-Apr-24 19:30N 50°50' W 005°04'2 4.3
2018-Apr-24 19:00N 50°48' W 005°06'2 4.2
2018-Apr-24 18:30N 50°47' W 005°09'2 4.0
2018-Apr-24 18:00N 50°46' W 005°11'2 3.7
2018-Apr-24 17:31N 50°44' W 005°13'2 4.1
2018-Apr-24 16:56N 50°43' W 005°16'3 4.0
2018-Apr-24 16:11N 50°41' W 005°19'1 3.9
2018-Apr-24 15:56N 50°40' W 005°20'2 4.0
2018-Apr-24 15:24N 50°38' W 005°22'2 4.1
2018-Apr-24 14:55N 50°37' W 005°25'72 2.5
2018-Apr-23 09:58N 50°07' W 003°41'4 5.1
2018-Apr-23 09:05N 50°08' W 003°35'0 5.5
2018-Apr-23 09:00N 50°08' W 003°34'3 5.5
2018-Apr-23 08:30N 50°08' W 003°30'3 5.8
2018-Apr-23 08:00N 50°09' W 003°25'3 6.1
2018-Apr-23 07:30N 50°09' W 003°21'3 6.1
2018-Apr-23 07:00N 50°10' W 003°16'3 6.2
2018-Apr-23 06:30N 50°11' W 003°11'3 6.2
2018-Apr-23 06:00N 50°11' W 003°06'3 6.0
2018-Apr-23 05:30N 50°12' W 003°02'5 5.4
2018-Apr-23 04:34N 50°13' W 002°54'49 4.5
2018-Apr-22 17:31N 50°21' W 001°38'0 6.4
2018-Apr-22 17:29N 50°21' W 001°38'3 6.2
2018-Apr-22 17:00N 50°22' W 001°33'3 5.6
2018-Apr-22 16:30N 50°22' W 001°29'3 5.6
2018-Apr-22 16:00N 50°23' W 001°25'2 5.0
2018-Apr-22 15:30N 50°23' W 001°21'2 4.5
2018-Apr-22 15:00N 50°24' W 001°17'2 4.1
2018-Apr-22 14:30N 50°24' W 001°14'2 3.5
2018-Apr-22 14:00N 50°24' W 001°11'2 3.1
2018-Apr-22 13:29N 50°25' W 001°09'2 2.7
2018-Apr-22 12:39N 50°25' W 001°05'12 3.7
2018-Apr-22 09:27N 50°27' W 000°47'3 6.5
2018-Apr-22 09:00N 50°28' W 000°43'3 6.7
2018-Apr-22 08:30N 50°28' W 000°37'3 6.9
2018-Apr-22 08:00N 50°29' W 000°32'3 6.9
2018-Apr-22 07:30N 50°29' W 000°27'4 7.0
2018-Apr-22 06:52N 50°30' W 000°20'3 6.9
2018-Apr-22 06:30N 50°31' W 000°16'4 6.8
2018-Apr-22 05:59N 50°31' W 000°11'3 6.6
2018-Apr-22 05:30N 50°32' W 000°06'3 6.5
2018-Apr-22 05:00N 50°33' W 000°01'3 6.3
2018-Apr-22 04:30N 50°34' E 000°04'3 6.0
2018-Apr-22 04:00N 50°34' E 000°09'3 5.7
2018-Apr-22 03:30N 50°35' E 000°13'3 5.2
2018-Apr-22 03:00N 50°36' E 000°17'2 4.7
2018-Apr-22 02:30N 50°36' E 000°20'2 4.3
2018-Apr-22 02:00N 50°37' E 000°24'2 3.9
2018-Apr-22 01:30N 50°37' E 000°27'2 3.8
2018-Apr-22 01:00N 50°38' E 000°30'2 3.9
2018-Apr-22 00:30N 50°39' E 000°33'2 4.2
2018-Apr-22 00:00N 50°40' E 000°35'2 4.7
2018-Apr-21 23:30N 50°41' E 000°38'3 5.2
2018-Apr-21 23:00N 50°42' E 000°42'3 6.0
2018-Apr-21 22:30N 50°44' E 000°46'3 6.6
2018-Apr-21 22:00N 50°46' E 000°50'3 6.9
2018-Apr-21 21:30N 50°48' E 000°55'4 7.0
2018-Apr-21 21:00N 50°50' E 000°59'3 6.8
2018-Apr-21 20:30N 50°52' E 001°03'18 5.3
2018-Apr-21 17:11N 51°03' E 001°25'1 3.6
2018-Apr-21 16:52N 51°04' E 001°26'1 3.4
2018-Apr-21 16:30N 51°05' E 001°28'2 3.4
2018-Apr-21 15:59N 51°06' E 001°30'2 3.8
2018-Apr-21 15:22N 51°07' E 001°33'2 4.2
2018-Apr-21 14:56N 51°09' E 001°35'2 4.6
2018-Apr-21 14:30N 51°10' E 001°38'3 5.1
2018-Apr-21 14:00N 51°12' E 001°41'3 5.7
2018-Apr-21 13:30N 51°13' E 001°44'4 7.1
2018-Apr-21 13:00N 51°17' E 001°46'4 8.0
2018-Apr-21 12:30N 51°20' E 001°49'4 8.4
2018-Apr-21 12:00N 51°24' E 001°51'4 7.5
2018-Apr-21 11:30N 51°28' E 001°51'3 7.0
2018-Apr-21 11:00N 51°31' E 001°49'4 7.1
2018-Apr-21 10:30N 51°35' E 001°47'3 6.4
2018-Apr-21 10:00N 51°37' E 001°45'3 6.3
2018-Apr-21 09:30N 51°41' E 001°44'3 6.0
2018-Apr-21 09:00N 51°44' E 001°43'3 5.7
2018-Apr-21 08:30N 51°46' E 001°43'3 5.5
2018-Apr-21 08:00N 51°49' E 001°42'3 6.6
2018-Apr-21 07:30N 51°50' E 001°37'3 6.4
2018-Apr-21 07:00N 51°50' E 001°31'3 6.5
2018-Apr-21 06:30N 51°50' E 001°26'4 7.3
2018-Apr-21 06:00N 51°48' E 001°21'4 7.9
2018-Apr-21 05:30N 51°46' E 001°16'4 7.3
2018-Apr-21 05:00N 51°45' E 001°11'3 6.5
2018-Apr-21 04:30N 51°44' E 001°05'2 4.8
2018-Apr-21 04:00N 51°45' E 001°02'2 4.9
2018-Apr-21 03:30N 51°48' E 001°01'1 1.7
2018-Apr-21 03:00N 51°48' E 001°02'0 0.0
2018-Apr-21 02:30N 51°48' E 001°02'0 0.3
2018-Apr-21 01:58N 51°48' E 001°01'0 0.0
2018-Apr-21 01:28N 51°48' E 001°01'0 0.0
2018-Apr-21 00:58N 51°48' E 001°01'0 0.0
2018-Apr-21 00:28N 51°48' E 001°01'0 0.0
2018-Apr-20 23:58N 51°48' E 001°01'0 0.0
2018-Apr-20 23:28N 51°48' E 001°01'0 0.0
2018-Apr-20 22:58N 51°48' E 001°01'0 0.0
2018-Apr-20 22:28N 51°48' E 001°01'0 0.0
2018-Apr-20 21:58N 51°48' E 001°01'0 0.0
2018-Apr-20 21:28N 51°48' E 001°01'0 0.0
2018-Apr-20 20:58N 51°48' E 001°01'0 0.0
2018-Apr-20 20:28N 51°48' E 001°01'0 0.0
2018-Apr-20 19:58N 51°48' E 001°01'0 0.0
2018-Apr-20 19:28N 51°48' E 001°01'0 0.0
2018-Apr-20 18:58N 51°48' E 001°01'0 0.0
2018-Apr-20 18:28N 51°48' E 001°01'0 0.0
2018-Apr-20 17:58N 51°48' E 001°01'0 0.0
2018-Apr-20 17:28N 51°48' E 001°01'0 0.0
2018-Apr-20 16:58N 51°48' E 001°01'0 0.0
2018-Apr-20 16:28N 51°48' E 001°01'0 0.0
2018-Apr-20 15:58N 51°48' E 001°01'0 0.0
2018-Apr-20 15:28N 51°48' E 001°01'0 0.3
2018-Apr-20 15:00N 51°48' E 001°02'0 0.2
2018-Apr-20 14:30N 51°48' E 001°01'0 0.0
2018-Apr-20 14:00N 51°48' E 001°01'0 0.0
2018-Apr-20 13:30N 51°48' E 001°01'0 0.0
2018-Apr-20 13:00N 51°48' E 001°01'0 0.0
2018-Apr-20 12:30N 51°48' E 001°01'0 0.0
2018-Apr-20 12:00N 51°48' E 001°01'0 0.0
2018-Apr-20 11:30N 51°48' E 001°01'0 0.0
2018-Apr-20 11:00N 51°48' E 001°01'0 0.0
2018-Apr-20 10:30N 51°48' E 001°01'0 0.0
2018-Apr-20 10:00N 51°48' E 001°01'0 0.0
2018-Apr-20 09:30N 51°48' E 001°01'0 0.0
2018-Apr-20 09:00N 51°48' E 001°01'0 0.0
2018-Apr-20 08:30N 51°48' E 001°01'0 0.0
2018-Apr-20 08:00N 51°48' E 001°01'0 0.0
2018-Apr-20 07:30N 51°48' E 001°01'0 0.0
2018-Apr-20 07:00N 51°48' E 001°01'0 0.0
2018-Apr-20 06:30N 51°48' E 001°01'0 0.0
2018-Apr-20 06:00N 51°48' E 001°01'0 0.0
2018-Apr-20 05:24N 51°48' E 001°01'0 0.0
2018-Apr-20 04:54N 51°48' E 001°01'0 0.0
2018-Apr-20 04:24N 51°48' E 001°01'0 0.0
2018-Apr-20 03:54N 51°48' E 001°01'0 0.0
2018-Apr-20 03:30N 51°48' E 001°01'0 0.0
2018-Apr-20 02:57N 51°48' E 001°01'0 0.0
2018-Apr-20 02:27N 51°48' E 001°01'0 0.0
2018-Apr-20 01:57N 51°48' E 001°01'0 0.0
2018-Apr-20 01:27N 51°48' E 001°01'0 0.0
2018-Apr-20 00:57N 51°48' E 001°01'0 0.0
2018-Apr-20 00:27N 51°48' E 001°01'0 0.0
2018-Apr-20 00:00N 51°48' E 001°01'0 0.0
2018-Apr-19 23:30N 51°48' E 001°01'0 0.0
2018-Apr-19 23:00N 51°48' E 001°01'0 0.0
2018-Apr-19 22:30N 51°48' E 001°01'0 0.0
2018-Apr-19 22:00N 51°48' E 001°01'0 0.0
2018-Apr-19 21:30N 51°48' E 001°01'0 0.0
2018-Apr-19 21:00N 51°48' E 001°01'0 0.0
2018-Apr-19 20:30N 51°48' E 001°01'0 0.0
2018-Apr-19 20:00N 51°48' E 001°01'0 0.0
2018-Apr-19 19:30N 51°48' E 001°01'0 0.0
2018-Apr-19 19:00N 51°48' E 001°01'0 0.0
2018-Apr-19 18:30N 51°48' E 001°01'0 0.0
2018-Apr-19 18:00N 51°48' E 001°01'0 0.0
2018-Apr-19 17:30N 51°48' E 001°01'0 0.0
2018-Apr-19 17:00N 51°48' E 001°01'0 0.0
2018-Apr-19 16:30N 51°48' E 001°01'0 0.0
2018-Apr-19 16:00N 51°48' E 001°01'0 0.0
2018-Apr-19 15:27N 51°48' E 001°01'0 0.0
2018-Apr-19 15:00N 51°48' E 001°01'0 0.5
2018-Apr-19 14:30N 51°48' E 001°02'0 1.0
2018-Apr-19 14:00N 51°48' E 001°01'0 0.8
2018-Apr-19 13:30N 51°48' E 001°00'0 0.1
2018-Apr-19 13:00N 51°48' E 001°00'0 0.0
2018-Apr-19 12:30N 51°48' E 001°00'1 2.3
2018-Apr-19 12:00N 51°47' E 001°01'2 3.1
2018-Apr-19 11:30N 51°46' E 001°02'1 2.4
2018-Apr-19 11:00N 51°45' E 001°02'0 0.3
2018-Apr-19 10:30N 51°45' E 001°02'2 3.9
2018-Apr-19 10:00N 51°44' E 001°05'2 4.9
2018-Apr-19 09:31N 51°44' E 001°09'2 4.8
2018-Apr-19 09:01N 51°45' E 001°12'2 4.3
2018-Apr-19 08:30N 51°46' E 001°15'2 4.0
2018-Apr-19 08:00N 51°47' E 001°18'2 3.5
2018-Apr-19 07:30N 51°48' E 001°20'2 3.4
2018-Apr-19 07:00N 51°49' E 001°23'2 3.1
2018-Apr-19 06:30N 51°50' E 001°25'1 2.9
2018-Apr-19 06:01N 51°50' E 001°27'2 3.0
2018-Apr-19 05:30N 51°50' E 001°30'1 2.6
2018-Apr-19 05:00N 51°50' E 001°32'2 3.5
2018-Apr-19 04:30N 51°49' E 001°34'1 2.9
2018-Apr-19 04:00N 51°49' E 001°36'1 2.5
2018-Apr-19 03:31N 51°49' E 001°38'2 3.0
2018-Apr-19 03:00N 51°49' E 001°40'3 5.1
2018-Apr-19 02:30N 51°46' E 001°41'3 5.3
2018-Apr-19 02:00N 51°43' E 001°42'2 5.0
2018-Apr-19 01:30N 51°41' E 001°42'2 4.7
2018-Apr-19 01:01N 51°39' E 001°43'2 4.2
2018-Apr-19 00:30N 51°36' E 001°43'2 3.8
2018-Apr-19 00:00N 51°35' E 001°43'2 3.1
2018-Apr-18 23:30N 51°33' E 001°44'1 2.9
2018-Apr-18 23:00N 51°32' E 001°44'1 2.5
2018-Apr-18 22:30N 51°30' E 001°44'1 2.1
2018-Apr-18 22:00N 51°29' E 001°44'1 1.9
2018-Apr-18 21:30N 51°28' E 001°44'1 2.0
2018-Apr-18 21:00N 51°27' E 001°44'1 2.2
2018-Apr-18 20:30N 51°26' E 001°44'1 2.5
2018-Apr-18 20:00N 51°25' E 001°43'1 2.6
2018-Apr-18 19:31N 51°24' E 001°43'1 2.9
2018-Apr-18 19:01N 51°23' E 001°41'2 3.5
2018-Apr-18 18:31N 51°22' E 001°38'2 3.7
2018-Apr-18 18:01N 51°22' E 001°35'2 4.0
2018-Apr-18 17:30N 51°21' E 001°32'2 4.3
2018-Apr-18 17:00N 51°20' E 001°29'3 5.0
2018-Apr-18 16:31N 51°20' E 001°25'0 0.6
2018-Apr-18 16:00N 51°20' E 001°25'0 0.0
2018-Apr-18 15:30N 51°20' E 001°25'0 0.0
2018-Apr-18 15:00N 51°20' E 001°25'0 0.0
2018-Apr-18 14:30N 51°20' E 001°25'0 0.0
2018-Apr-18 14:00N 51°20' E 001°25'0 0.0
2018-Apr-18 13:29N 51°20' E 001°25'0 0.0
2018-Apr-18 12:59N 51°20' E 001°25'0 0.0
2018-Apr-18 12:30N 51°20' E 001°25'0 0.0
2018-Apr-18 11:59N 51°20' E 001°25'0 0.0
2018-Apr-18 11:29N 51°20' E 001°25'0 0.1
2018-Apr-18 10:59N 51°20' E 001°25'0 0.1
2018-Apr-18 10:30N 51°20' E 001°25'0 0.7
2018-Apr-18 09:59N 51°20' E 001°25'0 0.0
2018-Apr-18 09:29N 51°20' E 001°25'0 0.0
2018-Apr-18 08:59N 51°20' E 001°25'0 0.0
2018-Apr-18 08:29N 51°20' E 001°25'0 0.0
2018-Apr-18 07:59N 51°20' E 001°25'0 0.0
2018-Apr-18 07:29N 51°20' E 001°25'0 0.0
2018-Apr-18 06:59N 51°20' E 001°25'0 0.0
2018-Apr-18 06:29N 51°20' E 001°25'0 0.0
2018-Apr-18 05:59N 51°20' E 001°25'0 0.0
2018-Apr-18 05:29N 51°20' E 001°25'0 0.0
2018-Apr-18 04:59N 51°20' E 001°25'0 0.0
2018-Apr-18 04:29N 51°20' E 001°25'0 0.0
2018-Apr-18 03:59N 51°20' E 001°25'0 0.0
2018-Apr-18 03:29N 51°20' E 001°25'0 0.0
2018-Apr-18 02:59N 51°20' E 001°25'0 0.0
2018-Apr-18 02:29N 51°20' E 001°25'0 0.0
2018-Apr-18 01:59N 51°20' E 001°25'0 0.0
2018-Apr-18 01:29N 51°20' E 001°25'0 0.0
2018-Apr-18 00:59N 51°20' E 001°25'0 0.0
2018-Apr-18 00:29N 51°20' E 001°25'0 0.0
2018-Apr-17 23:59N 51°20' E 001°25'0 0.0
2018-Apr-17 23:29N 51°20' E 001°25'0 0.0
2018-Apr-17 22:59N 51°20' E 001°25'0 0.0
2018-Apr-17 22:29N 51°20' E 001°25'0 0.0
2018-Apr-17 21:59N 51°20' E 001°25'0 0.0
2018-Apr-17 21:29N 51°20' E 001°25'0 0.0
2018-Apr-17 20:59N 51°20' E 001°25'0 0.0
2018-Apr-17 20:29N 51°20' E 001°25'0 0.0
2018-Apr-17 19:59N 51°20' E 001°25'0 0.0
2018-Apr-17 19:29N 51°20' E 001°25'0 0.0
2018-Apr-17 18:59N 51°20' E 001°25'0 0.0
2018-Apr-17 18:29N 51°20' E 001°25'0 0.0
2018-Apr-17 17:59N 51°20' E 001°25'0 0.0
2018-Apr-17 17:29N 51°20' E 001°25'0 0.0
2018-Apr-17 17:00N 51°20' E 001°25'0 0.7
2018-Apr-17 16:30N 51°20' E 001°25'0 0.4
2018-Apr-17 16:00N 51°20' E 001°25'2 3.7
2018-Apr-17 15:31N 51°20' E 001°28'2 3.4
2018-Apr-17 15:00N 51°21' E 001°31'2 3.7
2018-Apr-17 14:31N 51°21' E 001°33'2 3.5
2018-Apr-17 14:00N 51°22' E 001°36'1 1.3
2018-Apr-17 13:30N 51°23' E 001°36'2 3.4
2018-Apr-17 13:00N 51°23' E 001°39'2 4.1
2018-Apr-17 12:31N 51°24' E 001°42'2 4.4
2018-Apr-17 12:00N 51°25' E 001°45'2 4.9
2018-Apr-17 11:30N 51°26' E 001°49'3 5.6
2018-Apr-17 11:00N 51°28' E 001°52'3 6.5
2018-Apr-17 10:30N 51°30' E 001°57'4 7.3
2018-Apr-17 10:00N 51°32' E 002°01'4 7.9
2018-Apr-17 09:29N 51°35' E 002°06'4 8.0
2018-Apr-17 09:00N 51°38' E 002°10'4 7.6
2018-Apr-17 08:29N 51°41' E 002°14'4 7.4
2018-Apr-17 08:00N 51°43' E 002°18'3 6.9
2018-Apr-17 07:30N 51°46' E 002°22'3 6.3
2018-Apr-17 07:00N 51°48' E 002°26'48 4.5
2018-Apr-16 20:29N 52°03' E 003°39'3 6.2
2018-Apr-16 20:00N 52°03' E 003°44'3 6.0
2018-Apr-16 19:30N 52°03' E 003°49'3 5.7
2018-Apr-16 19:01N 52°03' E 003°54'3 5.2
2018-Apr-16 18:31N 52°02' E 003°58'3 5.7
2018-Apr-16 18:00N 52°00' E 004°02'3 6.2
2018-Apr-16 17:30N 51°59' E 004°06'3 6.4
2018-Apr-16 17:01N 51°57' E 004°10'3 6.0
2018-Apr-16 16:31N 51°55' E 004°14'3 5.5
2018-Apr-16 16:00N 51°54' E 004°18'3 5.3
2018-Apr-16 15:30N 51°54' E 004°22'0 0.6
2018-Apr-16 15:00N 51°54' E 004°23'0 0.0
2018-Apr-16 14:31N 51°54' E 004°23'0 0.0
2018-Apr-16 14:00N 51°54' E 004°23'0 0.0
2018-Apr-16 13:30N 51°54' E 004°23'0 0.0
2018-Apr-16 13:01N 51°54' E 004°23'0 0.6
2018-Apr-16 12:30N 51°54' E 004°23'2 3.2
2018-Apr-16 11:55N 51°54' E 004°26'0 0.0
2018-Apr-16 11:28N 51°54' E 004°26'0 0.0
2018-Apr-16 10:58N 51°54' E 004°26'0 0.0
2018-Apr-16 10:28N 51°54' E 004°26'0 0.0
2018-Apr-16 09:55N 51°54' E 004°26'0 0.0
2018-Apr-16 09:28N 51°54' E 004°26'0 0.0
2018-Apr-16 08:58N 51°54' E 004°26'0 0.0
2018-Apr-16 08:28N 51°54' E 004°26'0 0.0
2018-Apr-16 07:58N 51°54' E 004°26'0 0.1
2018-Apr-16 07:28N 51°54' E 004°26'0 0.0
2018-Apr-16 06:58N 51°54' E 004°26'0 0.0
2018-Apr-16 06:28N 51°54' E 004°26'0 0.0
2018-Apr-16 05:58N 51°54' E 004°26'0 0.0
2018-Apr-16 05:28N 51°54' E 004°26'0 0.0
2018-Apr-16 04:58N 51°54' E 004°26'0 0.0
2018-Apr-16 04:28N 51°54' E 004°26'0 0.0
2018-Apr-16 03:58N 51°54' E 004°26'0 0.0
2018-Apr-16 03:28N 51°54' E 004°26'0 0.0
2018-Apr-16 02:58N 51°54' E 004°26'0 0.0
2018-Apr-16 02:28N 51°54' E 004°26'0 0.0
2018-Apr-16 01:58N 51°54' E 004°26'0 0.0
2018-Apr-16 01:28N 51°54' E 004°26'0 0.0
2018-Apr-16 00:58N 51°54' E 004°26'0 0.0
2018-Apr-16 00:28N 51°54' E 004°26'0 0.0
2018-Apr-15 23:58N 51°54' E 004°26'0 0.0
2018-Apr-15 23:28N 51°54' E 004°26'0 0.0
2018-Apr-15 22:58N 51°54' E 004°26'0 0.0
2018-Apr-15 22:28N 51°54' E 004°26'0 0.0
2018-Apr-15 21:58N 51°54' E 004°26'0 0.0
2018-Apr-15 21:28N 51°54' E 004°26'0 0.0
2018-Apr-15 20:58N 51°54' E 004°26'0 0.0
2018-Apr-15 20:28N 51°54' E 004°26'0 0.0
2018-Apr-15 19:58N 51°54' E 004°26'0 0.0
2018-Apr-15 19:28N 51°54' E 004°26'0 0.0
2018-Apr-15 18:58N 51°54' E 004°26'0 0.0
2018-Apr-15 18:28N 51°54' E 004°26'0 0.0
2018-Apr-15 17:58N 51°54' E 004°26'0 0.0
2018-Apr-15 17:28N 51°54' E 004°26'0 0.0
2018-Apr-15 16:58N 51°54' E 004°26'0 0.0
2018-Apr-15 16:28N 51°54' E 004°26'0 0.0
2018-Apr-15 15:58N 51°54' E 004°26'0 0.0
2018-Apr-15 15:28N 51°54' E 004°26'0 0.0
2018-Apr-15 14:58N 51°54' E 004°26'0 0.0
2018-Apr-15 14:28N 51°54' E 004°26'0 0.0
2018-Apr-15 13:58N 51°54' E 004°26'0 0.0
2018-Apr-15 13:28N 51°54' E 004°26'0 0.0
2018-Apr-15 12:58N 51°54' E 004°26'0 0.0
2018-Apr-15 12:28N 51°54' E 004°26'0 0.0
2018-Apr-15 11:58N 51°54' E 004°26'0 0.0
2018-Apr-15 11:28N 51°54' E 004°26'0 0.0
2018-Apr-15 10:58N 51°54' E 004°26'0 0.0
2018-Apr-15 10:28N 51°54' E 004°26'0 0.0
2018-Apr-15 09:58N 51°54' E 004°26'0 0.0
2018-Apr-15 09:28N 51°54' E 004°26'0 0.0
2018-Apr-15 08:58N 51°54' E 004°26'0 0.0
2018-Apr-15 08:28N 51°54' E 004°26'0 0.0
2018-Apr-15 07:58N 51°54' E 004°26'0 0.0
2018-Apr-15 07:28N 51°54' E 004°26'0 0.0
2018-Apr-15 06:58N 51°54' E 004°26'0 0.0
2018-Apr-15 06:28N 51°54' E 004°26'0 0.0
2018-Apr-15 05:58N 51°54' E 004°26'0 0.0
2018-Apr-15 05:28N 51°54' E 004°26'0 0.0
2018-Apr-15 04:58N 51°54' E 004°26'0 0.0
2018-Apr-15 04:28N 51°54' E 004°26'0 0.0
2018-Apr-15 03:58N 51°54' E 004°26'0 0.0
2018-Apr-15 03:28N 51°54' E 004°26'0 0.0
2018-Apr-15 02:58N 51°54' E 004°26'0 0.0
2018-Apr-15 02:28N 51°54' E 004°26'0 0.0
2018-Apr-15 01:58N 51°54' E 004°26'0 0.0
2018-Apr-15 01:28N 51°54' E 004°26'0 0.0
2018-Apr-15 00:58N 51°54' E 004°26'  

Dump ship's entire track history